Observation data for Haskell on 02/16/2017      Previous  Date  Next       Current Mesonet Observations  Soil Data  Daily Summary Page  Observations in Plain Language
KHA1 160600Z 18006KT 04/M01 A3014 RMK A01 T00421006  RH  072%=      5-min Rain = 0
KHA1 160605Z 19005KT 04/M01 A3013 RMK A01 T00411005  RH  073%=      5-min Rain = 0
KHA1 160610Z 18005KT 04/M01 A3013 RMK A01 T00381005  RH  074%=      5-min Rain = 0
KHA1 160615Z 18005KT 04/M01 A3013 RMK A01 T00381005  RH  074%=      5-min Rain = 0
KHA1 160620Z 19004KT 04/M01 A3013 RMK A01 T00351005  RH  076%=      5-min Rain = 0
KHA1 160625Z 19004KT 04/M00 A3013 RMK A01 T00351004  RH  077%=      5-min Rain = 0
KHA1 160630Z 19004KT 04/M00 A3013 RMK A01 T00351004  RH  077%=      5-min Rain = 0
KHA1 160635Z 19005KT 04/M01 A3013 RMK A01 T00351005  RH  076%=      5-min Rain = 0
KHA1 160640Z 19005KT 03/M00 A3013 RMK A01 T00341004  RH  077%=      5-min Rain = 0
KHA1 160645Z 19004KT 03/M01 A3013 RMK A01 T00331005  RH  077%=      5-min Rain = 0
KHA1 160650Z 20004KT 03/M01 A3012 RMK A01 T00321005  RH  078%=      5-min Rain = 0
KHA1 160655Z 20004KT 03/M01 A3012 RMK A01 T00291005  RH  079%=      5-min Rain = 0
KHA1 160700Z 20004KT 03/M00 A3012 RMK A01 T00291004  RH  080%=      5-min Rain = 0
KHA1 160705Z 20005KT 03/M00 A3012 RMK A01 T00301004  RH  079%=      5-min Rain = 0
KHA1 160710Z 20005KT 03/M00 A3012 RMK A01 T00311003  RH  079%=      5-min Rain = 0
KHA1 160715Z 20005KT 03/M00 A3012 RMK A01 T00321003  RH  079%=      5-min Rain = 0
KHA1 160720Z 20005KT 03/M00 A3012 RMK A01 T00301002  RH  080%=      5-min Rain = 0
KHA1 160725Z 21005KT 03/M00 A3012 RMK A01 T00281003  RH  081%=      5-min Rain = 0
KHA1 160730Z 21006KT 03/M00 A3012 RMK A01 T00261002  RH  083%=      5-min Rain = 0
KHA1 160735Z 21006KT 03/M00 A3012 RMK A01 T00251001  RH  084%=      5-min Rain = 0
KHA1 160740Z 21005KT 02/00 A3012 RMK A01 T002400-0  RH  085%=      5-min Rain = 0
KHA1 160745Z 21005KT 02/M00 A3012 RMK A01 T00241001  RH  085%=      5-min Rain = 0
KHA1 160750Z 21005KT 02/M00 A3012 RMK A01 T00231001  RH  085%=      5-min Rain = 0
KHA1 160755Z 21005KT 02/00 A3012 RMK A01 T002300-0  RH  086%=      5-min Rain = 0
KHA1 160800Z 21004KT 03/00 A3012 RMK A01 T00250001  RH  085%=      5-min Rain = 0
KHA1 160805Z 20005KT 03/00 A3012 RMK A01 T002600-0  RH  084%=      5-min Rain = 0
KHA1 160810Z 20006KT 03/M00 A3012 RMK A01 T00261001  RH  084%=      5-min Rain = 0
KHA1 160815Z 21006KT 02/M00 A3012 RMK A01 T00231002  RH  084%=      5-min Rain = 0
KHA1 160820Z 21007KT 02/M00 A3012 RMK A01 T00221002  RH  085%=      5-min Rain = 0
KHA1 160825Z 20006KT 02/00 A3012 RMK A01 T00240000  RH  086%=      5-min Rain = 0
KHA1 160830Z 20006KT 02/00 A3012 RMK A01 T00240001  RH  086%=      5-min Rain = 0
KHA1 160835Z 20006KT 02/00 A3011 RMK A01 T00230001  RH  086%=      5-min Rain = 0
KHA1 160840Z 20006KT 02/00 A3011 RMK A01 T00230001  RH  086%=      5-min Rain = 0
KHA1 160845Z 20007KT 02/00 A3011 RMK A01 T00230001  RH  086%=      5-min Rain = 0
KHA1 160850Z 21008KT 02/00 A3011 RMK A01 T00240002  RH  086%=      5-min Rain = 0
KHA1 160855Z 21007KT 03/00 A3011 RMK A01 T00250001  RH  086%=      5-min Rain = 0
KHA1 160900Z 20007KT 02/00 A3011 RMK A01 T00240001  RH  086%=      5-min Rain = 0
KHA1 160905Z 20007KT 02/00 A3011 RMK A01 T00240001  RH  086%=      5-min Rain = 0
KHA1 160910Z 21007KT 02/00 A3011 RMK A01 T00230001  RH  086%=      5-min Rain = 0
KHA1 160915Z 20007KT 02/00 A3011 RMK A01 T00230001  RH  086%=      5-min Rain = 0
KHA1 160920Z 20007KT 02/00 A301 RMK A01 T00230001  RH  087%=      5-min Rain = 0
KHA1 160925Z 20007KT 02/00 A301 RMK A01 T00220001  RH  087%=      5-min Rain = 0
KHA1 160930Z 20007KT 02/00 A301 RMK A01 T00220001  RH  088%=      5-min Rain = 0
KHA1 160935Z 20007KT 02/00 A301 RMK A01 T00220002  RH  088%=      5-min Rain = 0
KHA1 160940Z 20007KT 02/00 A301 RMK A01 T00220002  RH  088%=      5-min Rain = 0
KHA1 160945Z 20007KT 02/00 A301 RMK A01 T00210002  RH  088%=      5-min Rain = 0
KHA1 160950Z 20007KT 02/00 A301 RMK A01 T00200002  RH  089%=      5-min Rain = 0
KHA1 160955Z 20007KT 02/00 A301 RMK A01 T00200003  RH  089%=      5-min Rain = 0
KHA1 161000Z 20007KT 02/00 A301 RMK A01 T00220003  RH  088%=      5-min Rain = 0
KHA1 161005Z 19007KT 02/00 A301 RMK A01 T00230003  RH  088%=      5-min Rain = 0
KHA1 161010Z 19007KT 03/00 A3009 RMK A01 T00250002  RH  086%=      5-min Rain = 0
KHA1 161015Z 19006KT 02/00 A3009 RMK A01 T00240001  RH  086%=      5-min Rain = 0
KHA1 161020Z 19006KT 02/00 A3009 RMK A01 T00230001  RH  087%=      5-min Rain = 0
KHA1 161025Z 19007KT 02/00 A3009 RMK A01 T00240001  RH  086%=      5-min Rain = 0
KHA1 161030Z 19007KT 02/00 A3009 RMK A01 T00240000  RH  085%=      5-min Rain = 0
KHA1 161035Z 19007KT 03/00 A3009 RMK A01 T00250000  RH  085%=      5-min Rain = 0
KHA1 161040Z 19008KT 03/00 A3009 RMK A01 T002500-0  RH  084%=      5-min Rain = 0
KHA1 161045Z 20007KT 02/M00 A3009 RMK A01 T00241001  RH  084%=      5-min Rain = 0
KHA1 161050Z 20007KT 02/M00 A3009 RMK A01 T00231001  RH  085%=      5-min Rain = 0
KHA1 161055Z 20007KT 02/M00 A3008 RMK A01 T00231001  RH  085%=      5-min Rain = 0
KHA1 161100Z 19007KT 02/M00 A3008 RMK A01 T00231002  RH  085%=      5-min Rain = 0
KHA1 161105Z 20007KT 02/M00 A3008 RMK A01 T00231002  RH  084%=      5-min Rain = 0
KHA1 161110Z 20006KT 02/M00 A3008 RMK A01 T00231003  RH  084%=      5-min Rain = 0
KHA1 161115Z 19007KT 02/M00 A3008 RMK A01 T00221003  RH  085%=      5-min Rain = 0
KHA1 161120Z 20007KT 02/M00 A3008 RMK A01 T00211002  RH  085%=      5-min Rain = 0
KHA1 161125Z 19007KT 02/M00 A3008 RMK A01 T00221002  RH  085%=      5-min Rain = 0
KHA1 161130Z 19007KT 02/M00 A3008 RMK A01 T00231003  RH  084%=      5-min Rain = 0
KHA1 161135Z 19007KT 02/M00 A3008 RMK A01 T00231003  RH  084%=      5-min Rain = 0
KHA1 161140Z 19007KT 02/M00 A3008 RMK A01 T00221004  RH  084%=      5-min Rain = 0
KHA1 161145Z 19007KT 02/M00 A3008 RMK A01 T00211004  RH  085%=      5-min Rain = 0
KHA1 161150Z 19007KT 02/M00 A3008 RMK A01 T00201004  RH  085%=      5-min Rain = 0
KHA1 161155Z 18007KT 02/M00 A3008 RMK A01 T00191004  RH  085%=      5-min Rain = 0
KHA1 161200Z 19007KT 02/M01 A3008 RMK A01 T00181005  RH  085%=      5-min Rain = 0
KHA1 161205Z 18007KT 02/M01 A3008 RMK A01 T00181005  RH  086%=      5-min Rain = 0
KHA1 161210Z 18007KT 02/M01 A3008 RMK A01 T00171005  RH  086%=      5-min Rain = 0
KHA1 161215Z 19007KT 02/M01 A3008 RMK A01 T00171005  RH  086%=      5-min Rain = 0
KHA1 161220Z 19007KT 02/M01 A3008 RMK A01 T00171005  RH  086%=      5-min Rain = 0
KHA1 161225Z 19007KT 02/M01 A3008 RMK A01 T00171006  RH  086%=      5-min Rain = 0
KHA1 161230Z 19007KT 02/M01 A3008 RMK A01 T00161006  RH  086%=      5-min Rain = 0
KHA1 161235Z 19007KT 02/M01 A3008 RMK A01 T00161006  RH  087%=      5-min Rain = 0
KHA1 161240Z 19008KT 02/M01 A3008 RMK A01 T00151005  RH  088%=      5-min Rain = 0
KHA1 161245Z 20007KT 02/M01 A3008 RMK A01 T00151005  RH  088%=      5-min Rain = 0
KHA1 161250Z 20007KT 01/M01 A3008 RMK A01 T00141005  RH  088%=      5-min Rain = 0
KHA1 161255Z 20007KT 02/M00 A3008 RMK A01 T00151004  RH  088%=      5-min Rain = 0
KHA1 161300Z 21007KT 02/M01 A3008 RMK A01 T00151005  RH  088%=      5-min Rain = 0
KHA1 161305Z 21007KT 02/M01 A3008 RMK A01 T00151005  RH  087%=      5-min Rain = 0
KHA1 161310Z 21007KT 01/M01 A3008 RMK A01 T00141005  RH  088%=      5-min Rain = 0
KHA1 161315Z 21008KT 02/M00 A3008 RMK A01 T00151004  RH  088%=      5-min Rain = 0
KHA1 161320Z 21008KT 02/M01 A3008 RMK A01 T00161005  RH  087%=      5-min Rain = 0
KHA1 161325Z 21007KT 02/M01 A3007 RMK A01 T00161005  RH  087%=      5-min Rain = 0
KHA1 161330Z 21007KT 02/M00 A3007 RMK A01 T00161004  RH  087%=      5-min Rain = 0
KHA1 161335Z 22007KT 02/M00 A3008 RMK A01 T00161004  RH  087%=      5-min Rain = 0
KHA1 161340Z 22008KT 02/M00 A3008 RMK A01 T00171004  RH  087%=      5-min Rain = 0
KHA1 161345Z 22007KT 02/M00 A3008 RMK A01 T00161004  RH  087%=      5-min Rain = 0
KHA1 161350Z 22007KT 02/M00 A3008 RMK A01 T00161004  RH  088%=      5-min Rain = 0
KHA1 161355Z 23006KT 02/M00 A3008 RMK A01 T00161003  RH  088%=      5-min Rain = 0
KHA1 161400Z 23007KT 02/M00 A3008 RMK A01 T00191001  RH  088%=      5-min Rain = 0
KHA1 161405Z 23007KT 02/00 A3008 RMK A01 T00220000  RH  086%=      5-min Rain = 0
KHA1 161410Z 23008KT 03/00 A3008 RMK A01 T00250000  RH  085%=      5-min Rain = 0
KHA1 161415Z 23008KT 03/00 A3008 RMK A01 T00280002  RH  084%=      5-min Rain = 0
KHA1 161420Z 23008KT 03/00 A3008 RMK A01 T00310004  RH  083%=      5-min Rain = 0
KHA1 161425Z 22008KT 03/01 A3008 RMK A01 T00340005  RH  083%=      5-min Rain = 0
KHA1 161430Z 22009KT 04/01 A3008 RMK A01 T00350006  RH  082%=      5-min Rain = 0
KHA1 161435Z 22009KT 04/01 A3008 RMK A01 T00360008  RH  083%=      5-min Rain = 0
KHA1 161440Z 22009KT 04/01 A3008 RMK A01 T00370009  RH  083%=      5-min Rain = 0
KHA1 161445Z 22008KT 04/01 A3008 RMK A01 T00410012  RH  083%=      5-min Rain = 0
KHA1 161450Z 22009KT 05/01 A3008 RMK A01 T00450013  RH  081%=      5-min Rain = 0
KHA1 161455Z 21009KT 05/02 A3008 RMK A01 T00480015  RH  080%=      5-min Rain = 0
KHA1 161500Z 22008KT 05/02 A3008 RMK A01 T00530018  RH  080%=      5-min Rain = 0
KHA1 161505Z 21008KT 06/02 A3008 RMK A01 T00580020  RH  078%=      5-min Rain = 0
KHA1 161510Z 21010KT 06/02 A3007 RMK A01 T00630020  RH  075%=      5-min Rain = 0
KHA1 161515Z 21009KT 07/02 A3007 RMK A01 T00690023  RH  074%=      5-min Rain = 0
KHA1 161520Z 21010KT 07/02 A3007 RMK A01 T00720019  RH  070%=      5-min Rain = 0
KHA1 161525Z 21010KT 08/02 A3007 RMK A01 T00750020  RH  069%=      5-min Rain = 0
KHA1 161530Z 21010KT 08/02 A3007 RMK A01 T00760020  RH  069%=      5-min Rain = 0
KHA1 161535Z 21011KT 08/02 A3007 RMK A01 T00790020  RH  068%=      5-min Rain = 0
KHA1 161540Z 21011KT 08/02 A3007 RMK A01 T00810022  RH  068%=      5-min Rain = 0
KHA1 161545Z 21012KT 08/02 A3007 RMK A01 T00810020  RH  066%=      5-min Rain = 0
KHA1 161550Z 21012KT 08/02 A3007 RMK A01 T00830021  RH  066%=      5-min Rain = 0
KHA1 161555Z 21012KT 09/02 A3007 RMK A01 T00860023  RH  066%=      5-min Rain = 0
KHA1 161600Z 21012KT 08/02 A3007 RMK A01 T00830022  RH  066%=      5-min Rain = 0
KHA1 161605Z 21010KT 08/02 A3007 RMK A01 T00800024  RH  069%=      5-min Rain = 0
KHA1 161610Z 21010KT 08/03 A3007 RMK A01 T00820025  RH  069%=      5-min Rain = 0
KHA1 161615Z 21010KT 09/03 A3007 RMK A01 T00870027  RH  067%=      5-min Rain = 0
KHA1 161620Z 22011KT 09/03 A3006 RMK A01 T00930025  RH  064%=      5-min Rain = 0
KHA1 161625Z 22010KT 10/03 A3006 RMK A01 T00960027  RH  063%=      5-min Rain = 0
KHA1 161630Z 22011KT 10/03 A3006 RMK A01 T00990030  RH  063%=      5-min Rain = 0
KHA1 161635Z 22011KT 10/03 A3006 RMK A01 T01040028  RH  061%=      5-min Rain = 0
KHA1 161640Z 22012KT 11/03 A3006 RMK A01 T01060028  RH  059%=      5-min Rain = 0
KHA1 161645Z 22012KT 11/03 A3006 RMK A01 T01100031  RH  059%=      5-min Rain = 0
KHA1 161650Z 22012KT 11/03 A3006 RMK A01 T01120030  RH  058%=      5-min Rain = 0
KHA1 161655Z 23010KT 12/03 A3006 RMK A01 T01150031  RH  057%=      5-min Rain = 0
KHA1 161700Z 22013KT 12/03 A3006 RMK A01 T01170031  RH  057%=      5-min Rain = 0
KHA1 161705Z 21010KT 12/04 A3006 RMK A01 T01170037  RH  059%=      5-min Rain = 0
KHA1 161710Z 20009KT 11/04 A3006 RMK A01 T01140039  RH  061%=      5-min Rain = 0
KHA1 161715Z 20010KT 11/04 A3006 RMK A01 T01080035  RH  062%=      5-min Rain = 0
KHA1 161720Z 20010KT 11/04 A3006 RMK A01 T01060037  RH  063%=      5-min Rain = 0
KHA1 161725Z 20010KT 12/04 A3005 RMK A01 T01150041  RH  062%=      5-min Rain = 0
KHA1 161730Z 21009KT 12/04 A3005 RMK A01 T01200041  RH  060%=      5-min Rain = 0
KHA1 161735Z 21009KT 12/04 A3005 RMK A01 T01230038  RH  057%=      5-min Rain = 0
KHA1 161740Z 22009KT 13/04 A3005 RMK A01 T01270041  RH  057%=      5-min Rain = 0
KHA1 161745Z 21010KT 13/04 A3004 RMK A01 T01300041  RH  056%=      5-min Rain = 0
KHA1 161750Z 21009KT 13/04 A3004 RMK A01 T01320040  RH  055%=      5-min Rain = 0
KHA1 161755Z 21009KT 14/04 A3004 RMK A01 T01360044  RH  055%=      5-min Rain = 0
KHA1 161800Z 22009KT 14/04 A3004 RMK A01 T01370038  RH  052%=      5-min Rain = 0
KHA1 161805Z 22010KT 14/04 A3004 RMK A01 T01420042  RH  052%=      5-min Rain = 0
KHA1 161810Z 22011G16KT 15/04 A3004 RMK A01 T01470039  RH  049%=      5-min Rain = 0
KHA1 161815Z 22012KT 15/04 A3003 RMK A01 T01500037  RH  047%=      5-min Rain = 0
KHA1 161820Z 22014KT 15/03 A3003 RMK A01 T01530033  RH  046%=      5-min Rain = 0
KHA1 161825Z 23012KT 16/04 A3003 RMK A01 T01550037  RH  046%=      5-min Rain = 0
KHA1 161830Z 22014G19KT 16/04 A3002 RMK A01 T01550035  RH  046%=      5-min Rain = 0
KHA1 161835Z 22014G20KT 16/04 A3002 RMK A01 T01560036  RH  046%=      5-min Rain = 0
KHA1 161840Z 23014G20KT 16/03 A3002 RMK A01 T01560033  RH  044%=      5-min Rain = 0
KHA1 161845Z 22016KT 16/03 A3001 RMK A01 T01570031  RH  044%=      5-min Rain = 0
KHA1 161850Z 22015G20KT 16/03 A3001 RMK A01 T01560032  RH  044%=      5-min Rain = 0
KHA1 161855Z 22016KT 16/03 A30 RMK A01 T01580031  RH  043%=      5-min Rain = 0
KHA1 161900Z 22016KT 16/03 A30 RMK A01 T01580028  RH  042%=      5-min Rain = 0
KHA1 161905Z 22014G20KT 16/03 A30 RMK A01 T01560028  RH  043%=      5-min Rain = 0
KHA1 161910Z 22014KT 15/03 A2999 RMK A01 T01530025  RH  043%=      5-min Rain = 0
KHA1 161915Z 22013KT 15/02 A2999 RMK A01 T01530024  RH  042%=      5-min Rain = 0
KHA1 161920Z 22012KT 16/02 A2999 RMK A01 T01590024  RH  041%=      5-min Rain = 0
KHA1 161925Z 22013G18KT 17/03 A2998 RMK A01 T01660026  RH  040%=      5-min Rain = 0
KHA1 161930Z 23010KT 17/02 A2998 RMK A01 T01670020  RH  038%=      5-min Rain = 0
KHA1 161935Z 22012KT 17/02 A2998 RMK A01 T01670022  RH  038%=      5-min Rain = 0
KHA1 161940Z 22013KT 17/02 A2998 RMK A01 T01670019  RH  038%=      5-min Rain = 0
KHA1 161945Z 23012KT 17/02 A2998 RMK A01 T01670015  RH  036%=      5-min Rain = 0
KHA1 161950Z 23010KT 17/02 A2997 RMK A01 T01700023  RH  038%=      5-min Rain = 0
KHA1 161955Z 23011KT 17/02 A2997 RMK A01 T01720015  RH  035%=      5-min Rain = 0
KHA1 162000Z 23010KT 17/02 A2997 RMK A01 T01730017  RH  036%=      5-min Rain = 0
KHA1 162005Z 23010KT 17/01 A2997 RMK A01 T01720013  RH  035%=      5-min Rain = 0
KHA1 162010Z 22010KT 17/02 A2996 RMK A01 T01740018  RH  036%=      5-min Rain = 0
KHA1 162015Z 22010KT 17/02 A2996 RMK A01 T01740020  RH  036%=      5-min Rain = 0
KHA1 162020Z 21010G15KT 18/02 A2996 RMK A01 T01760021  RH  036%=      5-min Rain = 0
KHA1 162025Z 21011G16KT 18/01 A2996 RMK A01 T01760010  RH  033%=      5-min Rain = 0
KHA1 162030Z 23012KT 18/01 A2995 RMK A01 T01780011  RH  033%=      5-min Rain = 0
KHA1 162035Z 22014KT 18/00 A2995 RMK A01 T01770002  RH  031%=      5-min Rain = 0
KHA1 162040Z 22014KT 18/M00 A2995 RMK A01 T01771002  RH  030%=      5-min Rain = 0
KHA1 162045Z 23013KT 18/M00 A2995 RMK A01 T01771004  RH  030%=      5-min Rain = 0
KHA1 162050Z 22013KT 18/01 A2995 RMK A01 T01790007  RH  032%=      5-min Rain = 0
KHA1 162055Z 22011KT 18/01 A2995 RMK A01 T01790006  RH  032%=      5-min Rain = 0
KHA1 162100Z 22013G19KT 18/01 A2995 RMK A01 T01810012  RH  033%=      5-min Rain = 0
KHA1 162105Z 22013KT 18/01 A2995 RMK A01 T01800009  RH  032%=      5-min Rain = 0
KHA1 162110Z 23014G19KT 18/01 A2995 RMK A01 T01810008  RH  032%=      5-min Rain = 0
KHA1 162115Z 22013KT 18/01 A2995 RMK A01 T01800009  RH  032%=      5-min Rain = 0
KHA1 162120Z 22011KT 18/01 A2994 RMK A01 T01810013  RH  033%=      5-min Rain = 0
KHA1 162125Z 22013KT 18/01 A2994 RMK A01 T01820009  RH  032%=      5-min Rain = 0
KHA1 162130Z 22012G17KT 18/01 A2994 RMK A01 T01810007  RH  032%=      5-min Rain = 0
KHA1 162135Z 22011KT 18/01 A2994 RMK A01 T01820010  RH  032%=      5-min Rain = 0
KHA1 162140Z 22012KT 18/01 A2994 RMK A01 T01820009  RH  032%=      5-min Rain = 0
KHA1 162145Z 22011KT 18/01 A2993 RMK A01 T01810014  RH  033%=      5-min Rain = 0
KHA1 162150Z 22010KT 18/01 A2993 RMK A01 T01780012  RH  033%=      5-min Rain = 0
KHA1 162155Z 21011KT 18/01 A2993 RMK A01 T01780012  RH  033%=      5-min Rain = 0
KHA1 162200Z 22010KT 18/01 A2993 RMK A01 T01810011  RH  032%=      5-min Rain = 0
KHA1 162205Z 22011KT 18/01 A2993 RMK A01 T01830014  RH  033%=      5-min Rain = 0
KHA1 162210Z 22009KT 18/02 A2993 RMK A01 T01820016  RH  033%=      5-min Rain = 0
KHA1 162215Z 21011G16KT 18/02 A2992 RMK A01 T01840022  RH  034%=      5-min Rain = 0
KHA1 162220Z 21011G16KT 18/02 A2992 RMK A01 T01830018  RH  033%=      5-min Rain = 0
KHA1 162225Z 21010KT 18/02 A2992 RMK A01 T01840022  RH  035%=      5-min Rain = 0
KHA1 162230Z 21011G16KT 18/02 A2992 RMK A01 T01840019  RH  034%=      5-min Rain = 0
KHA1 162235Z 21014KT 18/01 A2992 RMK A01 T01830013  RH  032%=      5-min Rain = 0
KHA1 162240Z 21013KT 18/01 A2992 RMK A01 T01820013  RH  033%=      5-min Rain = 0
KHA1 162245Z 21010KT 18/02 A2992 RMK A01 T01820016  RH  033%=      5-min Rain = 0
KHA1 162250Z 21011KT 18/02 A2992 RMK A01 T01830018  RH  034%=      5-min Rain = 0
KHA1 162255Z 21011KT 18/02 A2992 RMK A01 T01820017  RH  034%=      5-min Rain = 0
KHA1 162300Z 21011KT 18/02 A2992 RMK A01 T01820017  RH  034%=      5-min Rain = 0
KHA1 162305Z 22010KT 18/02 A2992 RMK A01 T01820018  RH  034%=      5-min Rain = 0
KHA1 162310Z 21009KT 18/02 A2992 RMK A01 T01810021  RH  035%=      5-min Rain = 0
KHA1 162315Z 21009KT 18/02 A2992 RMK A01 T01810020  RH  035%=      5-min Rain = 0
KHA1 162320Z 19009KT 18/02 A2991 RMK A01 T01800020  RH  035%=      5-min Rain = 0
KHA1 162325Z 20008KT 18/02 A2991 RMK A01 T01790020  RH  035%=      5-min Rain = 0
KHA1 162330Z 19008KT 18/02 A2991 RMK A01 T01780022  RH  036%=      5-min Rain = 0
KHA1 162335Z 19008KT 18/02 A2991 RMK A01 T01770020  RH  035%=      5-min Rain = 0
KHA1 162340Z 19007KT 18/02 A2991 RMK A01 T01770022  RH  036%=      5-min Rain = 0
KHA1 162345Z 19007KT 18/02 A2991 RMK A01 T01760023  RH  036%=      5-min Rain = 0
KHA1 162350Z 19006KT 18/03 A2991 RMK A01 T01750025  RH  037%=      5-min Rain = 0
KHA1 162355Z 19006KT 17/03 A2991 RMK A01 T01740028  RH  038%=      5-min Rain = 0
KHA1 170000Z 20006KT 17/03 A2991 RMK A01 T01700034  RH  041%=      5-min Rain = 0
KHA1 170005Z 19005KT 16/04 A2991 RMK A01 T01610041  RH  046%=      5-min Rain = 0
KHA1 170010Z 18004KT 16/04 A2991 RMK A01 T01600036  RH  044%=      5-min Rain = 0
KHA1 170015Z 17005KT 16/03 A2991 RMK A01 T01620032  RH  042%=      5-min Rain = 0
KHA1 170020Z 17004KT 16/03 A2991 RMK A01 T01620028  RH  041%=      5-min Rain = 0
KHA1 170025Z 17005KT 16/03 A2991 RMK A01 T01610026  RH  041%=      5-min Rain = 0
KHA1 170030Z 17005KT 16/03 A2991 RMK A01 T01590029  RH  042%=      5-min Rain = 0
KHA1 170035Z 18004KT 16/03 A2991 RMK A01 T01560031  RH  044%=      5-min Rain = 0
KHA1 170040Z 18004KT 15/03 A2991 RMK A01 T01540031  RH  044%=      5-min Rain = 0
KHA1 170045Z 17004KT 15/03 A2991 RMK A01 T01540031  RH  045%=      5-min Rain = 0
KHA1 170050Z 17004KT 15/03 A2991 RMK A01 T01520030  RH  045%=      5-min Rain = 0
KHA1 170055Z 17004KT 15/03 A2991 RMK A01 T01500028  RH  045%=      5-min Rain = 0
KHA1 170100Z 17005KT 15/03 A2991 RMK A01 T01480028  RH  045%=      5-min Rain = 0
KHA1 170105Z 17005KT 15/03 A2991 RMK A01 T01470026  RH  045%=      5-min Rain = 0
KHA1 170110Z 17005KT 15/03 A299 RMK A01 T01460027  RH  045%=      5-min Rain = 0
KHA1 170115Z 16005KT 15/03 A299 RMK A01 T01460026  RH  045%=      5-min Rain = 0
KHA1 170120Z 17005KT 15/02 A299 RMK A01 T01460024  RH  044%=      5-min Rain = 0
KHA1 170125Z 17006KT 15/02 A299 RMK A01 T01470024  RH  044%=      5-min Rain = 0
KHA1 170130Z 17005KT 15/03 A299 RMK A01 T01460025  RH  045%=      5-min Rain = 0
KHA1 170135Z 17006KT 14/03 A299 RMK A01 T01430028  RH  047%=      5-min Rain = 0
KHA1 170140Z 17006KT 14/03 A299 RMK A01 T01400030  RH  048%=      5-min Rain = 0
KHA1 170145Z 18006KT 14/03 A299 RMK A01 T01380033  RH  050%=      5-min Rain = 0
KHA1 170150Z 17006KT 13/04 A299 RMK A01 T01340036  RH  052%=      5-min Rain = 0
KHA1 170155Z 17007KT 13/04 A299 RMK A01 T01330037  RH  053%=      5-min Rain = 0
KHA1 170200Z 17006KT 13/04 A299 RMK A01 T01310038  RH  054%=      5-min Rain = 0
KHA1 170205Z 17007KT 13/04 A299 RMK A01 T01310038  RH  054%=      5-min Rain = 0
KHA1 170210Z 17007KT 13/04 A299 RMK A01 T01310037  RH  054%=      5-min Rain = 0
KHA1 170215Z 17007KT 13/04 A299 RMK A01 T01300036  RH  054%=      5-min Rain = 0
KHA1 170220Z 17007KT 13/03 A299 RMK A01 T01300034  RH  053%=      5-min Rain = 0
KHA1 170225Z 17007KT 13/03 A299 RMK A01 T01310033  RH  052%=      5-min Rain = 0
KHA1 170230Z 17008KT 13/03 A299 RMK A01 T01310032  RH  052%=      5-min Rain = 0
KHA1 170235Z 18007G12KT 13/03 A299 RMK A01 T01290032  RH  053%=      5-min Rain = 0
KHA1 170240Z 18007KT 13/03 A299 RMK A01 T01270033  RH  053%=      5-min Rain = 0
KHA1 170245Z 18007KT 13/03 A299 RMK A01 T01250033  RH  054%=      5-min Rain = 0
KHA1 170250Z 18008KT 12/03 A299 RMK A01 T01240033  RH  055%=      5-min Rain = 0
KHA1 170255Z 18008KT 12/03 A299 RMK A01 T01220033  RH  055%=      5-min Rain = 0
KHA1 170300Z 18008KT 12/03 A299 RMK A01 T01200034  RH  056%=      5-min Rain = 0
KHA1 170305Z 18008KT 12/03 A299 RMK A01 T01180034  RH  057%=      5-min Rain = 0
KHA1 170310Z 18008KT 12/03 A299 RMK A01 T01180033  RH  057%=      5-min Rain = 0
KHA1 170315Z 18008KT 12/03 A299 RMK A01 T01160034  RH  058%=      5-min Rain = 0
KHA1 170320Z 18008KT 12/03 A299 RMK A01 T01150034  RH  058%=      5-min Rain = 0
KHA1 170325Z 18008KT 11/03 A299 RMK A01 T01140033  RH  059%=      5-min Rain = 0
KHA1 170330Z 18008KT 11/03 A299 RMK A01 T01130033  RH  059%=      5-min Rain = 0
KHA1 170335Z 18009KT 11/03 A299 RMK A01 T01130032  RH  059%=      5-min Rain = 0
KHA1 170340Z 18009KT 11/03 A2989 RMK A01 T01120033  RH  059%=      5-min Rain = 0
KHA1 170345Z 18008KT 11/03 A2989 RMK A01 T01100033  RH  060%=      5-min Rain = 0
KHA1 170350Z 19008KT 11/03 A2989 RMK A01 T01100033  RH  060%=      5-min Rain = 0
KHA1 170355Z 19009KT 11/03 A2989 RMK A01 T01080033  RH  061%=      5-min Rain = 0
KHA1 170400Z 18008KT 11/03 A2989 RMK A01 T01080032  RH  061%=      5-min Rain = 0
KHA1 170405Z 18008KT 11/03 A2989 RMK A01 T01070032  RH  061%=      5-min Rain = 0
KHA1 170410Z 18008KT 11/03 A2989 RMK A01 T01070032  RH  061%=      5-min Rain = 0
KHA1 170415Z 18008KT 11/03 A2989 RMK A01 T01060032  RH  061%=      5-min Rain = 0
KHA1 170420Z 18007KT 11/03 A2989 RMK A01 T01050032  RH  062%=      5-min Rain = 0
KHA1 170425Z 17008KT 10/03 A2989 RMK A01 T01040032  RH  062%=      5-min Rain = 0
KHA1 170430Z 18008KT 10/03 A2989 RMK A01 T01030032  RH  063%=      5-min Rain = 0
KHA1 170435Z 18008KT 10/03 A2988 RMK A01 T01020032  RH  063%=      5-min Rain = 0
KHA1 170440Z 18008KT 10/03 A2988 RMK A01 T01010032  RH  063%=      5-min Rain = 0
KHA1 170445Z 17008KT 10/03 A2988 RMK A01 T01000032  RH  064%=      5-min Rain = 0
KHA1 170450Z 18008KT 10/03 A2988 RMK A01 T00990031  RH  064%=      5-min Rain = 0
KHA1 170455Z 18008KT 10/03 A2988 RMK A01 T00980032  RH  065%=      5-min Rain = 0
KHA1 170500Z 18008KT 10/03 A2988 RMK A01 T00970032  RH  065%=      5-min Rain = 0
KHA1 170505Z 18008KT 10/03 A2987 RMK A01 T00980032  RH  065%=      5-min Rain = 0
KHA1 170510Z 18008KT 10/03 A2987 RMK A01 T00970032  RH  065%=      5-min Rain = 0
KHA1 170515Z 19008KT 10/03 A2987 RMK A01 T00970032  RH  065%=      5-min Rain = 0
KHA1 170520Z 19009KT 10/03 A2987 RMK A01 T00960032  RH  066%=      5-min Rain = 0
KHA1 170525Z 19009KT 09/03 A2987 RMK A01 T00940032  RH  067%=      5-min Rain = 0
KHA1 170530Z 19009KT 09/03 A2987 RMK A01 T00920032  RH  067%=      5-min Rain = 0
KHA1 170535Z 19008KT 09/03 A2987 RMK A01 T00930032  RH  067%=      5-min Rain = 0
KHA1 170540Z 20009KT 09/03 A2986 RMK A01 T00890032  RH  069%=      5-min Rain = 0
KHA1 170545Z 20009KT 09/03 A2986 RMK A01 T00900032  RH  068%=      5-min Rain = 0
KHA1 170550Z 21008KT 09/03 A2986 RMK A01 T00880032  RH  069%=      5-min Rain = 0
KHA1 170555Z 21007KT 08/03 A2986 RMK A01 T00830032  RH  072%=      5-min Rain = 0

Page generated in 0.0136 seconds.